Time;durP1;ratioP1;P1;durP2;ratioP2;P2;SDS_P1;SDS_P2;PMS_P1;PMS_P2;Temp;Humidity;BMP_temperature;BMP_pressure;BME280_temperature;BME280_humidity;BME280_pressure;Samples;Min_cycle;Max_cycle;Signal;HPM_P1;HPM_P2
2023/10/16 00:03:49;;;;;;;2.47;0.70;;;13.90;91.50;;;;;;10541545;28;20564;-66
2023/10/16 00:08:53;;;;;;;2.30;0.70;;;13.90;91.50;;;;;;10533695;28;20413;-66
2023/10/16 00:13:56;;;;;;;1.17;0.50;;;13.90;91.60;;;;;;10541675;28;20401;-67
2023/10/16 00:18:57;;;;;;;2.70;0.70;;;13.90;91.60;;;;;;10532137;28;20414;-66
2023/10/16 00:23:58;;;;;;;2.40;0.88;;;13.80;91.90;;;;;;10535338;28;20405;-66
2023/10/16 00:29:07;;;;;;;1.30;0.60;;;13.80;91.70;;;;;;10542509;28;20828;-67
2023/10/16 00:34:08;;;;;;;1.25;0.60;;;13.90;91.70;;;;;;10540080;28;20394;-67
2023/10/16 00:39:15;;;;;;;1.73;0.40;;;14.00;91.70;;;;;;10528655;28;20410;-66
2023/10/16 00:44:17;;;;;;;1.95;0.60;;;13.80;91.70;;;;;;10528795;28;20760;-66
2023/10/16 00:49:21;;;;;;;1.67;0.70;;;13.80;91.70;;;;;;10545120;28;20517;-67
2023/10/16 00:54:28;;;;;;;0.85;0.55;;;13.80;91.80;;;;;;10537105;28;20490;-66
2023/10/16 00:59:29;;;;;;;1.20;0.60;;;13.80;91.80;;;;;;10536505;28;20436;-68
2023/10/16 01:04:31;;;;;;;2.58;0.60;;;13.80;91.80;;;;;;10526272;28;20505;-66
2023/10/16 01:09:40;;;;;;;2.53;0.80;;;13.80;91.80;;;;;;10535868;28;20764;-68
2023/10/16 01:14:42;;;;;;;1.63;0.80;;;13.80;91.90;;;;;;10543481;28;20919;-68
2023/10/16 01:19:44;;;;;;;1.87;0.60;;;13.80;91.90;;;;;;10528005;28;20416;-68
2023/10/16 01:24:45;;;;;;;2.15;0.88;;;13.90;91.90;;;;;;10521026;28;20469;-67
2023/10/16 01:29:47;;;;;;;2.23;1.00;;;13.80;91.90;;;;;;10530636;28;20494;-68
2023/10/16 01:34:47;;;;;;;2.92;1.25;;;13.80;91.90;;;;;;10538257;28;20413;-66
2023/10/16 01:39:48;;;;;;;2.87;1.20;;;13.80;92.00;;;;;;10540043;28;20408;-67
2023/10/16 01:44:51;;;;;;;2.90;1.00;;;13.70;91.90;;;;;;10534812;28;20418;-68
2023/10/16 01:49:54;;;;;;;2.22;1.10;;;13.80;92.00;;;;;;10536609;28;20427;-66
2023/10/16 01:54:57;;;;;;;2.60;1.00;;;13.80;92.00;;;;;;10525659;28;20404;-67
2023/10/16 02:00:00;;;;;;;2.23;1.20;;;13.80;92.00;;;;;;10537977;28;20968;-68
2023/10/16 02:05:00;;;;;;;1.48;1.10;;;13.70;92.00;;;;;;10545441;28;20428;-67
2023/10/16 02:10:01;;;;;;;2.40;1.20;;;13.70;92.00;;;;;;10512474;28;20772;-67
2023/10/16 02:15:05;;;;;;;2.77;1.20;;;13.70;92.10;;;;;;10537905;28;20899;-67
2023/10/16 02:20:11;;;;;;;3.40;1.30;;;13.70;92.10;;;;;;10532136;28;20946;-68
2023/10/16 02:25:11;;;;;;;2.60;1.07;;;13.70;92.10;;;;;;10531698;28;20402;-68
2023/10/16 02:30:28;;;;;;;2.88;1.30;;;13.70;92.10;;;;;;10530882;28;20380;-67
2023/10/16 02:35:28;;;;;;;3.42;1.50;;;13.70;92.10;;;;;;10522377;28;20396;-67
2023/10/16 02:40:32;;;;;;;2.60;1.30;;;13.70;92.10;;;;;;10530533;28;20417;-67
2023/10/16 02:45:33;;;;;;;2.72;1.30;;;13.70;92.20;;;;;;10516256;28;20400;-67
2023/10/16 02:50:35;;;;;;;2.80;1.20;;;13.70;92.20;;;;;;10538989;28;20390;-68
2023/10/16 02:55:40;;;;;;;2.73;1.30;;;13.70;92.20;;;;;;10532257;28;20973;-66
2023/10/16 03:00:49;;;;;;;2.08;1.20;;;13.70;92.30;;;;;;10509669;28;20457;-68
2023/10/16 03:05:55;;;;;;;2.95;1.30;;;13.70;92.50;;;;;;10526001;28;20846;-65
2023/10/16 03:10:59;;;;;;;1.85;1.10;;;13.70;92.30;;;;;;10534281;28;20398;-67
2023/10/16 03:16:05;;;;;;;2.10;1.10;;;13.60;92.30;;;;;;10547542;28;20899;-67
2023/10/16 03:26:27;;;;;;;1.43;0.90;;;13.70;92.30;;;;;;10536544;28;20403;-66
2023/10/16 03:31:29;;;;;;;2.00;1.15;;;13.80;92.40;;;;;;10545223;28;20388;-68
2023/10/16 03:36:30;;;;;;;2.10;1.00;;;13.70;92.70;;;;;;10541372;28;20916;-67
2023/10/16 03:41:39;;;;;;;2.05;0.90;;;13.60;92.40;;;;;;10542996;28;20413;-67
2023/10/16 03:46:42;;;;;;;1.80;0.90;;;13.60;92.40;;;;;;10539749;28;20459;-67
2023/10/16 03:51:44;;;;;;;2.37;1.00;;;13.60;92.50;;;;;;10532701;28;20404;-65
2023/10/16 03:56:45;;;;;;;1.70;0.90;;;13.60;92.50;;;;;;10538072;28;20897;-67
2023/10/16 04:01:47;;;;;;;2.17;0.93;;;14.20;92.60;;;;;;10533297;28;20820;-65
2023/10/16 04:06:48;;;;;;;1.40;0.90;;;13.60;92.50;;;;;;10536168;28;20905;-67
2023/10/16 04:11:54;;;;;;;3.00;1.02;;;13.60;92.50;;;;;;10538155;28;20386;-67
2023/10/16 04:16:55;;;;;;;1.20;0.75;;;13.60;92.50;;;;;;10527445;28;20527;-67
2023/10/16 04:22:07;;;;;;;1.80;0.90;;;13.60;92.50;;;;;;10529354;28;20408;-67
2023/10/16 04:32:20;;;;;;;1.35;0.80;;;13.60;92.60;;;;;;10534412;28;20399;-67
2023/10/16 04:58:27;;;;;;;2.77;0.90;;;13.60;92.70;;;;;;10545220;28;20398;-67
2023/10/16 05:03:24;;;;;;;2.78;0.80;;;13.60;92.70;;;;;;10528669;28;20401;-67
2023/10/16 05:08:31;;;;;;;2.58;0.85;;;13.60;92.70;;;;;;10535945;28;20411;-67
2023/10/16 05:19:01;;;;;;;1.33;0.70;;;13.70;92.70;;;;;;10523777;28;20898;-66
2023/10/16 06:17:15;;;;;;;2.45;0.70;;;13.50;93.00;;;;;;10519234;28;20488;-68
2023/10/16 06:22:16;;;;;;;1.67;0.97;;;13.50;93.10;;;;;;10523849;28;20413;-68
2023/10/16 06:27:20;;;;;;;1.60;0.88;;;13.50;93.00;;;;;;10519676;28;20410;-67
2023/10/16 06:32:25;;;;;;;1.20;0.80;;;13.60;93.20;;;;;;10524987;28;20862;-68
2023/10/16 06:37:28;;;;;;;1.70;0.90;;;13.60;93.10;;;;;;10533973;28;20457;-69
2023/10/16 06:42:29;;;;;;;3.22;0.90;;;13.90;93.40;;;;;;10527849;28;21235;-67
2023/10/16 06:47:36;;;;;;;2.33;1.00;;;13.50;93.20;;;;;;10519382;28;20408;-66
2023/10/16 06:52:39;;;;;;;3.07;0.97;;;13.60;93.50;;;;;;10521149;28;20435;-69
2023/10/16 06:57:40;;;;;;;3.38;1.00;;;13.60;93.50;;;;;;10530888;28;20442;-68
2023/10/16 07:02:40;;;;;;;2.97;0.90;;;13.60;93.60;;;;;;10524637;28;20419;-68
2023/10/16 07:07:41;;;;;;;1.95;0.90;;;14.10;93.60;;;;;;10524926;28;20412;-68
2023/10/16 07:12:58;;;;;;;2.13;1.20;;;13.60;93.50;;;;;;10526373;28;20415;-68
2023/10/16 07:18:04;;;;;;;2.33;0.95;;;13.60;93.40;;;;;;10528560;28;20418;-68
2023/10/16 07:23:10;;;;;;;2.53;0.87;;;13.60;93.40;;;;;;10507842;28;20504;-68
2023/10/16 07:28:11;;;;;;;2.30;0.90;;;13.60;93.40;;;;;;10518070;28;20404;-68
2023/10/16 07:33:15;;;;;;;1.97;0.80;;;13.60;93.40;;;;;;10524900;28;20409;-68
2023/10/16 07:38:21;;;;;;;1.53;0.87;;;14.10;93.50;;;;;;10536139;28;20446;-67
2023/10/16 07:43:29;;;;;;;1.60;0.93;;;13.90;93.50;;;;;;10517392;28;20412;-67
2023/10/16 07:48:30;;;;;;;2.17;0.82;;;13.70;93.40;;;;;;10522901;28;20804;-67
2023/10/16 07:53:30;;;;;;;1.43;0.97;;;13.70;93.50;;;;;;10527998;28;20474;-68
2023/10/16 07:58:34;;;;;;;2.70;1.10;;;13.70;93.50;;;;;;10524669;28;20411;-67
2023/10/16 08:03:49;;;;;;;1.87;1.00;;;13.70;93.50;;;;;;10534658;28;20476;-67
2023/10/16 08:08:50;;;;;;;2.77;0.90;;;14.00;93.50;;;;;;10520073;28;20406;-68
2023/10/16 08:13:53;;;;;;;2.70;0.90;;;13.70;93.50;;;;;;10534520;28;20439;-67
2023/10/16 08:18:57;;;;;;;1.52;0.90;;;13.70;93.70;;;;;;10506634;28;20409;-66
2023/10/16 08:23:59;;;;;;;2.08;0.90;;;13.80;93.70;;;;;;10536169;28;20903;-68
2023/10/16 08:34:35;;;;;;;1.45;0.70;;;13.80;93.80;;;;;;10492371;28;20909;-66
2023/10/16 08:39:44;;;;;;;1.52;0.85;;;13.80;94.20;;;;;;10532280;28;20408;-67
2023/10/16 08:44:51;;;;;;;3.10;0.90;;;13.80;94.20;;;;;;10529330;28;20413;-67
2023/10/16 08:49:56;;;;;;;2.05;0.93;;;13.80;94.20;;;;;;10535711;28;20390;-67
2023/10/16 08:55:18;;;;;;;1.42;1.00;;;13.80;94.10;;;;;;10542855;28;20402;-68
2023/10/16 09:00:22;;;;;;;2.80;1.00;;;13.90;94.10;;;;;;10537601;28;20415;-65
2023/10/16 09:05:23;;;;;;;1.85;1.20;;;13.90;94.00;;;;;;10537971;28;20614;-67
2023/10/16 09:10:23;;;;;;;3.57;0.93;;;13.90;94.00;;;;;;10525195;28;20838;-66
2023/10/16 09:15:24;;;;;;;2.40;0.90;;;13.90;94.00;;;;;;10509649;28;20400;-66
2023/10/16 09:20:33;;;;;;;2.63;0.98;;;14.00;94.00;;;;;;10527417;28;20479;-66
2023/10/16 09:25:34;;;;;;;3.20;1.10;;;14.00;93.90;;;;;;10525925;28;20423;-67
2023/10/16 09:30:34;;;;;;;3.47;0.93;;;14.00;93.90;;;;;;10539961;28;20396;-66
2023/10/16 09:35:43;;;;;;;1.23;0.80;;;14.00;93.90;;;;;;10524980;28;20403;-66
2023/10/16 09:41:37;;;;;;;1.77;0.77;;;14.10;93.90;;;;;;10528389;28;20950;-67
2023/10/16 09:51:58;;;;;;;1.48;1.00;;;14.20;93.90;;;;;;10533154;28;20396;-64
2023/10/16 09:57:00;;;;;;;1.60;0.70;;;14.20;93.90;;;;;;10526825;28;20616;-67
2023/10/16 10:02:05;;;;;;;3.33;0.80;;;14.30;93.90;;;;;;10531958;28;20412;-67
2023/10/16 10:07:11;;;;;;;1.52;0.85;;;14.30;93.80;;;;;;10529496;28;20413;-66
2023/10/16 10:12:28;;;;;;;5.30;1.40;;;14.40;93.80;;;;;;10523120;28;20461;-67
2023/10/16 10:17:33;;;;;;;1.65;0.60;;;14.40;93.80;;;;;;10530772;28;20401;-67
2023/10/16 10:22:35;;;;;;;1.20;0.65;;;14.40;93.80;;;;;;10526216;28;20412;-66
2023/10/16 10:27:41;;;;;;;0.85;0.60;;;14.40;93.80;;;;;;10528709;28;20726;-64
2023/10/16 10:32:41;;;;;;;1.77;0.80;;;14.40;93.80;;;;;;10530616;28;20432;-68
2023/10/16 10:37:47;;;;;;;2.37;0.70;;;14.50;93.70;;;;;;10527678;28;20794;-67
2023/10/16 10:42:53;;;;;;;2.40;0.82;;;14.60;93.70;;;;;;10519920;28;21161;-67
2023/10/16 10:47:55;;;;;;;1.80;0.70;;;14.60;93.60;;;;;;10519756;28;20414;-67
2023/10/16 10:52:55;;;;;;;1.45;0.73;;;14.70;93.60;;;;;;10502757;28;20395;-68
2023/10/16 10:58:00;;;;;;;2.87;1.00;;;14.70;93.70;;;;;;10535089;28;20445;-68
2023/10/16 11:13:11;;;;;;;1.48;0.80;;;14.80;93.60;;;;;;10515271;28;20433;-65
2023/10/16 11:18:13;;;;;;;1.67;0.90;;;14.80;93.60;;;;;;10520395;28;20492;-67
2023/10/16 11:23:15;;;;;;;1.38;0.65;;;14.80;93.60;;;;;;10529015;28;20401;-67
2023/10/16 11:28:20;;;;;;;1.38;0.73;;;14.80;93.80;;;;;;10531767;28;20460;-67
2023/10/16 11:33:44;;;;;;;2.92;0.80;;;14.80;93.60;;;;;;10535207;28;20912;-66
2023/10/16 11:38:44;;;;;;;4.55;0.90;;;14.80;93.60;;;;;;10543086;28;20415;-68
2023/10/16 11:43:51;;;;;;;3.80;1.00;;;14.80;93.30;;;;;;10542873;28;20436;-68
2023/10/16 11:48:56;;;;;;;5.53;1.10;;;14.70;93.00;;;;;;10538125;28;20423;-71
2023/10/16 11:53:59;;;;;;;5.60;0.87;;;14.70;92.60;;;;;;10536595;28;20399;-70
2023/10/16 11:59:03;;;;;;;5.53;1.17;;;14.80;92.30;;;;;;10517328;28;20447;-71
2023/10/16 12:04:04;;;;;;;3.40;0.70;;;14.70;91.90;;;;;;10534265;28;20788;-70
2023/10/16 12:09:13;;;;;;;4.55;0.77;;;14.80;90.80;;;;;;10535910;28;20464;-70
2023/10/16 12:14:14;;;;;;;3.72;0.80;;;14.60;90.10;;;;;;10525875;28;20482;-70
2023/10/16 12:19:16;;;;;;;4.47;0.83;;;14.90;90.70;;;;;;10529953;28;20820;-72
2023/10/16 12:24:16;;;;;;;4.10;1.00;;;15.00;91.50;;;;;;10546427;28;20409;-73
2023/10/16 12:29:17;;;;;;;5.23;0.83;;;15.10;91.90;;;;;;10526714;28;20406;-72
2023/10/16 12:34:18;;;;;;;4.68;0.82;;;14.30;91.80;;;;;;10509904;28;20398;-70
2023/10/16 12:39:24;;;;;;;4.53;0.80;;;14.50;91.30;;;;;;10515469;28;20944;-71
2023/10/16 12:44:25;;;;;;;4.25;0.70;;;14.60;90.90;;;;;;10530576;28;20399;-72
2023/10/16 12:49:26;;;;;;;3.28;0.90;;;14.90;91.10;;;;;;10538601;28;20400;-72
2023/10/16 12:54:27;;;;;;;5.27;1.07;;;14.60;89.50;;;;;;10526632;28;20404;-72
2023/10/16 12:59:27;;;;;;;3.83;0.70;;;14.50;89.00;;;;;;10535403;28;20403;-71
2023/10/16 13:04:28;;;;;;;3.53;0.77;;;14.50;88.30;;;;;;10523121;28;20412;-72
2023/10/16 13:09:30;;;;;;;5.55;0.90;;;15.00;90.00;;;;;;10541684;28;20674;-73
2023/10/16 13:14:35;;;;;;;2.63;0.65;;;14.40;89.00;;;;;;10530541;28;20495;-72
2023/10/16 13:19:35;;;;;;;3.03;0.80;;;14.40;89.00;;;;;;10531196;28;20770;-72
2023/10/16 13:24:37;;;;;;;2.53;0.80;;;14.50;87.80;;;;;;10525714;28;20444;-72
2023/10/16 13:29:39;;;;;;;2.80;0.60;;;14.50;87.50;;;;;;10513937;28;20883;-73
2023/10/16 13:34:42;;;;;;;4.13;0.80;;;15.20;87.90;;;;;;10533770;28;20515;-72
2023/10/16 13:39:43;;;;;;;3.40;0.77;;;14.40;88.40;;;;;;10534263;28;20787;-73
2023/10/16 13:44:46;;;;;;;3.13;0.80;;;14.30;87.50;;;;;;10515588;28;20408;-74
2023/10/16 13:49:50;;;;;;;3.43;0.80;;;14.50;88.40;;;;;;10527364;28;20585;-72
2023/10/16 13:54:53;;;;;;;2.33;0.73;;;14.50;88.90;;;;;;10531348;28;20401;-73
2023/10/16 13:59:54;;;;;;;2.60;0.70;;;14.30;88.50;;;;;;10501773;28;20414;-72
2023/10/16 14:04:56;;;;;;;2.93;0.70;;;14.30;89.00;;;;;;10514563;28;20418;-72
2023/10/16 14:09:57;;;;;;;5.50;1.02;;;14.20;88.80;;;;;;10523315;28;20407;-73
2023/10/16 14:14:57;;;;;;;4.60;1.10;;;14.10;89.10;;;;;;10520547;28;20803;-72
2023/10/16 14:19:58;;;;;;;4.18;0.73;;;14.20;89.70;;;;;;10515297;28;20490;-72
2023/10/16 14:24:59;;;;;;;5.20;1.13;;;14.10;89.50;;;;;;10530708;28;20468;-72
2023/10/16 14:30:00;;;;;;;3.95;0.90;;;14.10;90.00;;;;;;10539416;28;20476;-73
2023/10/16 14:35:00;;;;;;;3.30;0.73;;;14.20;90.30;;;;;;10503398;28;20498;-71
2023/10/16 14:40:04;;;;;;;3.00;0.93;;;15.10;90.40;;;;;;10511034;28;20415;-70
2023/10/16 14:45:06;;;;;;;3.08;0.80;;;14.10;89.70;;;;;;10507980;28;20419;-70
2023/10/16 14:50:07;;;;;;;3.58;0.82;;;14.00;89.50;;;;;;10515928;28;20682;-75
2023/10/16 14:55:08;;;;;;;4.03;0.80;;;14.00;90.00;;;;;;10531759;28;20422;-70
2023/10/16 15:00:12;;;;;;;4.13;0.80;;;14.10;90.10;;;;;;10518502;28;20404;-69
2023/10/16 15:05:15;;;;;;;3.87;1.10;;;14.20;90.60;;;;;;10531576;28;20416;-69
2023/10/16 15:10:17;;;;;;;2.95;1.27;;;14.20;90.70;;;;;;10526132;28;20403;-69
2023/10/16 15:15:17;;;;;;;3.75;1.00;;;14.10;90.30;;;;;;10517279;28;20837;-68
2023/10/16 15:20:18;;;;;;;4.20;1.00;;;14.30;90.90;;;;;;10513425;28;20566;-68
2023/10/16 15:25:19;;;;;;;3.25;0.90;;;13.90;91.30;;;;;;10533557;28;20420;-68
2023/10/16 15:30:19;;;;;;;2.97;0.80;;;14.00;91.70;;;;;;10514914;28;20436;-69
2023/10/16 15:35:20;;;;;;;4.93;1.00;;;14.00;91.90;;;;;;10538236;28;20401;-69
2023/10/16 15:40:21;;;;;;;3.03;1.10;;;14.30;92.20;;;;;;10530038;28;20428;-69
2023/10/16 15:45:25;;;;;;;3.03;1.00;;;13.90;92.90;;;;;;10525780;28;21332;-69
2023/10/16 15:50:27;;;;;;;3.17;1.00;;;14.00;93.00;;;;;;10517394;28;20432;-69
2023/10/16 15:55:28;;;;;;;2.63;1.00;;;14.10;93.90;;;;;;10525903;28;20973;-69
2023/10/16 16:00:30;;;;;;;2.97;1.20;;;14.10;93.90;;;;;;10514180;28;20405;-70
2023/10/16 16:05:32;;;;;;;5.27;1.60;;;14.20;94.10;;;;;;10522299;28;20442;-67
2023/10/16 16:10:33;;;;;;;4.17;1.00;;;14.10;94.20;;;;;;10528268;28;20398;-67
2023/10/16 16:15:36;;;;;;;3.85;1.00;;;14.20;94.10;;;;;;10534100;28;20414;-68
2023/10/16 16:20:37;;;;;;;2.97;1.20;;;14.30;93.90;;;;;;10524320;28;20412;-67
2023/10/16 16:25:38;;;;;;;4.07;1.00;;;14.40;93.80;;;;;;10517243;28;20412;-67
2023/10/16 16:30:40;;;;;;;2.73;1.00;;;14.40;93.60;;;;;;10516790;28;20986;-69
2023/10/16 16:35:40;;;;;;;3.10;0.90;;;14.50;93.60;;;;;;10535033;28;20700;-67
2023/10/16 16:40:41;;;;;;;3.17;1.07;;;14.60;93.50;;;;;;10532156;28;20942;-68
2023/10/16 16:45:41;;;;;;;2.57;0.90;;;14.80;93.60;;;;;;10522681;28;20402;-67
2023/10/16 16:50:42;;;;;;;3.33;1.10;;;14.80;93.50;;;;;;10531266;28;20402;-68
2023/10/16 16:55:43;;;;;;;2.97;1.20;;;14.70;93.50;;;;;;10515895;28;20499;-68
2023/10/16 17:00:44;;;;;;;2.47;1.30;;;14.70;93.50;;;;;;10520775;28;20414;-68
2023/10/16 17:05:45;;;;;;;6.32;2.60;;;14.70;93.50;;;;;;10528577;28;20415;-67
2023/10/16 17:10:46;;;;;;;6.05;2.50;;;14.70;93.40;;;;;;10524899;28;20569;-69
2023/10/16 17:15:47;;;;;;;5.53;2.30;;;14.70;93.80;;;;;;10521101;28;20425;-67
2023/10/16 17:20:47;;;;;;;4.87;2.17;;;14.60;94.20;;;;;;10519286;28;20450;-66
2023/10/16 17:25:48;;;;;;;4.90;2.33;;;14.60;94.00;;;;;;10522188;28;20459;-67
2023/10/16 17:30:49;;;;;;;4.93;2.15;;;14.60;93.90;;;;;;10521371;28;20400;-66
2023/10/16 17:35:59;;;;;;;5.43;2.40;;;14.60;93.90;;;;;;10529442;28;20409;-66
2023/10/16 17:41:01;;;;;;;5.45;2.70;;;14.80;93.90;;;;;;10523143;28;20498;-68
2023/10/16 17:46:02;;;;;;;5.45;2.28;;;14.70;93.80;;;;;;10518252;28;20673;-67
2023/10/16 17:51:05;;;;;;;4.27;2.23;;;14.60;93.70;;;;;;10519251;28;20406;-65
2023/10/16 17:56:06;;;;;;;3.97;2.50;;;14.60;93.60;;;;;;10509197;28;20408;-67
2023/10/16 18:01:12;;;;;;;5.03;2.53;;;14.60;93.60;;;;;;10520639;28;20858;-67
2023/10/16 18:06:16;;;;;;;4.67;2.40;;;14.60;93.50;;;;;;10525472;28;20408;-65
2023/10/16 18:11:20;;;;;;;4.68;2.60;;;14.60;93.50;;;;;;10516591;28;20421;-67
2023/10/16 18:16:23;;;;;;;5.88;2.53;;;14.60;93.40;;;;;;10523763;28;20759;-67
2023/10/16 18:21:25;;;;;;;4.78;2.65;;;14.60;93.40;;;;;;10520621;28;20759;-67
2023/10/16 18:26:27;;;;;;;4.45;2.85;;;14.70;93.40;;;;;;10528166;28;20804;-67
2023/10/16 18:31:29;;;;;;;5.25;2.60;;;14.60;93.30;;;;;;10508147;28;20457;-67
2023/10/16 18:36:30;;;;;;;5.60;3.15;;;14.60;93.20;;;;;;10530609;28;20838;-67
2023/10/16 18:41:30;;;;;;;4.93;2.93;;;14.60;93.20;;;;;;10524469;28;20422;-67
2023/10/16 18:46:31;;;;;;;4.33;3.10;;;14.70;93.20;;;;;;10493896;28;20455;-67
2023/10/16 18:51:32;;;;;;;4.53;3.03;;;14.50;93.10;;;;;;10512757;28;20409;-67
2023/10/16 18:56:33;;;;;;;5.10;3.40;;;14.50;93.10;;;;;;10523771;28;20395;-67
2023/10/16 19:01:34;;;;;;;4.43;3.33;;;14.50;93.10;;;;;;10524353;28;20775;-67
2023/10/16 19:06:34;;;;;;;6.83;3.80;;;14.50;93.10;;;;;;10516276;28;20416;-66
2023/10/16 19:11:35;;;;;;;5.57;3.88;;;14.50;93.10;;;;;;10512818;28;20400;-66
2023/10/16 19:16:35;;;;;;;6.70;4.27;;;15.10;93.20;;;;;;10515433;28;20484;-67
2023/10/16 19:21:38;;;;;;;5.80;4.13;;;14.90;93.10;;;;;;10518413;28;20402;-66
2023/10/16 19:26:40;;;;;;;6.17;4.03;;;14.40;93.00;;;;;;10525740;28;20679;-67
2023/10/16 19:31:41;;;;;;;5.23;4.40;;;14.40;93.00;;;;;;10519243;28;20466;-67
2023/10/16 19:36:45;;;;;;;6.13;3.83;;;14.40;93.00;;;;;;10525288;28;20924;-67
2023/10/16 19:41:49;;;;;;;6.15;4.10;;;14.40;93.00;;;;;;10514055;28;20414;-65
2023/10/16 19:46:49;;;;;;;7.70;4.35;;;14.40;92.90;;;;;;10499464;28;20445;-67
2023/10/16 19:51:50;;;;;;;5.87;4.07;;;14.40;92.90;;;;;;10515250;28;20485;-67
2023/10/16 19:56:50;;;;;;;6.27;3.90;;;14.30;92.90;;;;;;10533364;28;20451;-66
2023/10/16 20:01:51;;;;;;;6.50;3.97;;;14.30;92.90;;;;;;10527982;28;20491;-66
2023/10/16 20:06:55;;;;;;;6.30;3.73;;;14.30;92.90;;;;;;10527551;28;20421;-67
2023/10/16 20:11:55;;;;;;;6.67;3.97;;;14.30;92.90;;;;;;10522063;28;20405;-66
2023/10/16 20:16:56;;;;;;;5.82;3.78;;;14.30;92.90;;;;;;10522329;28;20397;-67
2023/10/16 20:21:57;;;;;;;6.17;4.07;;;14.30;93.20;;;;;;10521764;28;21427;-67
2023/10/16 20:26:57;;;;;;;6.93;4.20;;;14.30;92.90;;;;;;10519714;28;20404;-67
2023/10/16 20:31:59;;;;;;;5.80;3.90;;;14.30;92.90;;;;;;10504054;28;20401;-66
2023/10/16 20:37:00;;;;;;;6.90;4.60;;;14.30;92.90;;;;;;10523717;28;20448;-68
2023/10/16 20:42:00;;;;;;;5.80;4.40;;;14.30;92.90;;;;;;10521377;28;20961;-68
2023/10/16 20:47:01;;;;;;;6.00;4.77;;;14.20;92.90;;;;;;10521095;28;20770;-66
2023/10/16 20:52:02;;;;;;;6.00;4.30;;;14.20;92.90;;;;;;10520756;28;20394;-67
2023/10/16 20:57:02;;;;;;;6.63;4.50;;;14.20;92.90;;;;;;10523803;28;20439;-67
2023/10/16 21:02:05;;;;;;;7.38;4.40;;;14.20;92.90;;;;;;10524626;28;20742;-67
2023/10/16 21:07:07;;;;;;;6.40;4.32;;;14.20;92.90;;;;;;10517546;28;20410;-67
2023/10/16 21:12:08;;;;;;;7.00;4.50;;;14.20;92.80;;;;;;10504793;28;20416;-68
2023/10/16 21:17:08;;;;;;;7.03;4.20;;;14.50;92.90;;;;;;10516241;28;20434;-67
2023/10/16 21:22:09;;;;;;;5.95;4.15;;;14.20;92.80;;;;;;10526211;28;20449;-67
2023/10/16 21:27:10;;;;;;;7.20;4.22;;;14.10;92.80;;;;;;10485018;28;20410;-65
2023/10/16 21:32:11;;;;;;;6.73;4.40;;;14.10;92.80;;;;;;10509262;28;20402;-65
2023/10/16 21:37:14;;;;;;;5.57;4.20;;;14.10;92.80;;;;;;10532898;28;20402;-66
2023/10/16 21:42:15;;;;;;;5.63;4.30;;;14.10;92.80;;;;;;10522610;28;20419;-67
2023/10/16 21:47:16;;;;;;;7.35;4.50;;;14.10;92.80;;;;;;10533133;28;20436;-68
2023/10/16 21:52:17;;;;;;;7.37;4.80;;;14.10;92.80;;;;;;10524988;28;20398;-67
2023/10/16 21:57:20;;;;;;;6.10;4.75;;;14.10;92.80;;;;;;10526438;28;20451;-68
2023/10/16 22:02:21;;;;;;;7.78;5.15;;;14.10;92.80;;;;;;10527166;28;20676;-68
2023/10/16 22:07:25;;;;;;;6.97;4.70;;;14.00;92.80;;;;;;10535954;28;20495;-67
2023/10/16 22:12:26;;;;;;;7.88;4.72;;;14.00;92.70;;;;;;10519803;28;20903;-65
2023/10/16 22:17:30;;;;;;;8.20;4.70;;;14.00;92.70;;;;;;10521214;28;20401;-67
2023/10/16 22:22:30;;;;;;;7.05;4.95;;;14.00;93.00;;;;;;10503091;28;20415;-67
2023/10/16 22:27:32;;;;;;;7.07;4.13;;;14.00;92.70;;;;;;10533312;28;20919;-68
2023/10/16 22:32:33;;;;;;;6.50;4.40;;;13.90;92.60;;;;;;10522312;28;20398;-68
2023/10/16 22:37:34;;;;;;;6.05;4.05;;;13.90;92.60;;;;;;10533657;28;20401;-68
2023/10/16 22:42:34;;;;;;;6.67;4.40;;;14.30;92.70;;;;;;10514669;28;20409;-67
2023/10/16 22:47:35;;;;;;;5.70;4.00;;;13.90;92.50;;;;;;10504624;28;20955;-67
2023/10/16 22:52:36;;;;;;;7.38;4.40;;;14.00;92.50;;;;;;10528225;28;20960;-66
2023/10/16 22:57:36;;;;;;;6.40;3.80;;;13.90;92.40;;;;;;10518614;28;20809;-67
2023/10/16 23:02:37;;;;;;;5.80;3.87;;;13.90;92.40;;;;;;10531453;28;20994;-67
2023/10/16 23:07:38;;;;;;;5.57;3.70;;;13.80;92.40;;;;;;10526945;28;20411;-67
2023/10/16 23:12:45;;;;;;;5.50;3.63;;;13.80;92.30;;;;;;10524926;28;20442;-67
2023/10/16 23:17:50;;;;;;;6.32;3.45;;;13.80;92.30;;;;;;10525010;28;20431;-67
2023/10/16 23:22:52;;;;;;;6.35;3.60;;;13.80;92.30;;;;;;10544033;28;20402;-68
2023/10/16 23:27:52;;;;;;;6.80;4.00;;;13.80;92.30;;;;;;10548084;28;20948;-67
2023/10/16 23:32:54;;;;;;;5.93;3.80;;;13.70;92.20;;;;;;10544318;28;20407;-68
2023/10/16 23:37:55;;;;;;;4.75;3.50;;;13.70;92.20;;;;;;10535472;28;20870;-68
2023/10/16 23:42:56;;;;;;;5.87;3.60;;;14.20;92.30;;;;;;10532959;28;20493;-66
2023/10/16 23:48:00;;;;;;;5.10;3.67;;;14.20;92.20;;;;;;10531521;28;20417;-68
2023/10/16 23:53:13;;;;;;;4.80;3.35;;;13.70;92.10;;;;;;10533391;28;20936;-67
2023/10/16 23:58:19;;;;;;;5.20;3.27;;;13.70;92.10;;;;;;10530029;28;20423;-67
